sensor_id;sensor_type;location;lat;lon;timestamp;temperature;humidity
16388;DHT22;8303;53.446;9.988;2023-02-01T05:47:03;1.90;1.00
16388;DHT22;8303;53.446;9.988;2023-02-01T05:49:30;2.00;1.00
16388;DHT22;8303;53.446;9.988;2023-02-01T05:51:57;2.00;1.00
16388;DHT22;8303;53.446;9.988;2023-02-01T05:54:24;2.00;1.00
16388;DHT22;8303;53.446;9.988;2023-02-01T05:56:51;2.10;1.00
16388;DHT22;8303;53.446;9.988;2023-02-01T05:59:18;2.10;1.00
16388;DHT22;8303;53.446;9.988;2023-02-01T06:01:44;2.20;1.00
16388;DHT22;8303;53.446;9.988;2023-02-01T06:04:14;2.20;1.00
16388;DHT22;8303;53.446;9.988;2023-02-01T06:06:41;2.30;1.00
16388;DHT22;8303;53.446;9.988;2023-02-01T06:09:07;2.40;1.00
16388;DHT22;8303;53.446;9.988;2023-02-01T06:11:34;2.50;1.00
16388;DHT22;8303;53.446;9.988;2023-02-01T06:14:01;2.60;1.00
16388;DHT22;8303;53.446;9.988;2023-02-01T06:16:28;2.70;1.00
16388;DHT22;8303;53.446;9.988;2023-02-01T06:18:55;2.80;1.00
16388;DHT22;8303;53.446;9.988;2023-02-01T06:21:23;2.90;1.00
16388;DHT22;8303;53.446;9.988;2023-02-01T06:23:50;3.00;1.00
16388;DHT22;8303;53.446;9.988;2023-02-01T06:26:17;3.00;1.00
16388;DHT22;8303;53.446;9.988;2023-02-01T06:28:44;3.10;1.00
16388;DHT22;8303;53.446;9.988;2023-02-01T06:31:11;3.20;1.00
16388;DHT22;8303;53.446;9.988;2023-02-01T06:33:38;3.20;1.00
16388;DHT22;8303;53.446;9.988;2023-02-01T06:36:07;3.30;1.00
16388;DHT22;8303;53.446;9.988;2023-02-01T06:38:36;3.40;1.00
16388;DHT22;8303;53.446;9.988;2023-02-01T06:41:04;3.40;1.00
16388;DHT22;8303;53.446;9.988;2023-02-01T06:43:31;3.60;1.00
16388;DHT22;8303;53.446;9.988;2023-02-01T06:46:00;3.60;1.00
16388;DHT22;8303;53.446;9.988;2023-02-01T06:48:28;3.70;1.00
16388;DHT22;8303;53.446;9.988;2023-02-01T06:50:54;3.70;1.00
16388;DHT22;8303;53.446;9.988;2023-02-01T06:53:21;3.80;1.00
16388;DHT22;8303;53.446;9.988;2023-02-01T06:55:53;3.70;1.00
16388;DHT22;8303;53.446;9.988;2023-02-01T06:58:20;3.80;1.00
16388;DHT22;8303;53.446;9.988;2023-02-01T07:00:47;3.80;1.00
16388;DHT22;8303;53.446;9.988;2023-02-01T07:03:14;3.80;1.00
16388;DHT22;8303;53.446;9.988;2023-02-01T07:05:41;3.90;1.00
16388;DHT22;8303;53.446;9.988;2023-02-01T07:08:08;3.90;1.00
16388;DHT22;8303;53.446;9.988;2023-02-01T07:10:35;4.10;1.00
16388;DHT22;8303;53.446;9.988;2023-02-01T07:13:03;4.10;1.00
16388;DHT22;8303;53.446;9.988;2023-02-01T07:15:30;4.00;1.00
16388;DHT22;8303;53.446;9.988;2023-02-01T07:17:57;4.00;1.00
16388;DHT22;8303;53.446;9.988;2023-02-01T07:20:24;3.90;1.00
16388;DHT22;8303;53.446;9.988;2023-02-01T07:22:55;3.90;1.00
16388;DHT22;8303;53.446;9.988;2023-02-01T07:25:23;3.90;1.00
16388;DHT22;8303;53.446;9.988;2023-02-01T07:27:50;3.90;1.00
16388;DHT22;8303;53.446;9.988;2023-02-01T07:30:18;4.00;1.00
16388;DHT22;8303;53.446;9.988;2023-02-01T07:32:45;4.10;1.00
16388;DHT22;8303;53.446;9.988;2023-02-01T07:35:12;4.10;1.00
16388;DHT22;8303;53.446;9.988;2023-02-01T07:37:40;4.20;1.00
16388;DHT22;8303;53.446;9.988;2023-02-01T07:40:08;4.30;99.90
16388;DHT22;8303;53.446;9.988;2023-02-01T07:42:36;4.40;99.90
16388;DHT22;8303;53.446;9.988;2023-02-01T07:45:03;4.40;99.90
16388;DHT22;8303;53.446;9.988;2023-02-01T07:47:32;4.50;99.90
16388;DHT22;8303;53.446;9.988;2023-02-01T07:49:59;4.50;99.90
16388;DHT22;8303;53.446;9.988;2023-02-01T07:52:27;4.60;99.90
16388;DHT22;8303;53.446;9.988;2023-02-01T07:54:54;4.60;99.90
16388;DHT22;8303;53.446;9.988;2023-02-01T07:57:21;4.70;99.90
16388;DHT22;8303;53.446;9.988;2023-02-01T07:59:48;4.80;99.90
16388;DHT22;8303;53.446;9.988;2023-02-01T08:02:34;4.80;99.90
16388;DHT22;8303;53.446;9.988;2023-02-01T08:05:01;4.80;99.90
16388;DHT22;8303;53.446;9.988;2023-02-01T08:07:27;4.90;60.90
16388;DHT22;8303;53.446;9.988;2023-02-01T08:09:54;5.00;1.00
16388;DHT22;8303;53.446;9.988;2023-02-01T08:12:21;5.00;1.00
16388;DHT22;8303;53.446;9.988;2023-02-01T08:14:48;5.00;99.90
16388;DHT22;8303;53.446;9.988;2023-02-01T08:17:15;5.10;1.00
16388;DHT22;8303;53.446;9.988;2023-02-01T08:19:43;5.00;99.90
16388;DHT22;8303;53.446;9.988;2023-02-01T08:22:10;5.00;1.00
16388;DHT22;8303;53.446;9.988;2023-02-01T08:24:37;5.10;1.00
16388;DHT22;8303;53.446;9.988;2023-02-01T08:27:05;5.20;1.00
16388;DHT22;8303;53.446;9.988;2023-02-01T08:29:32;5.20;99.90
16388;DHT22;8303;53.446;9.988;2023-02-01T08:31:59;5.30;99.90
16388;DHT22;8303;53.446;9.988;2023-02-01T08:34:26;5.40;99.90
16388;DHT22;8303;53.446;9.988;2023-02-01T08:36:54;5.50;64.90
16388;DHT22;8303;53.446;9.988;2023-02-01T08:39:24;5.60;1.00
16388;DHT22;8303;53.446;9.988;2023-02-01T08:41:51;5.70;1.00
16388;DHT22;8303;53.446;9.988;2023-02-01T08:44:31;5.80;1.00
16388;DHT22;8303;53.446;9.988;2023-02-01T08:46:58;5.80;99.90
16388;DHT22;8303;53.446;9.988;2023-02-01T08:49:25;5.80;1.00
16388;DHT22;8303;53.446;9.988;2023-02-01T08:51:53;5.70;1.00
16388;DHT22;8303;53.446;9.988;2023-02-01T08:54:20;5.70;1.00
16388;DHT22;8303;53.446;9.988;2023-02-01T08:56:47;5.80;1.00
16388;DHT22;8303;53.446;9.988;2023-02-01T08:59:14;5.90;1.00
16388;DHT22;8303;53.446;9.988;2023-02-01T09:01:41;5.90;1.00
16388;DHT22;8303;53.446;9.988;2023-02-01T09:04:08;5.80;1.00
16388;DHT22;8303;53.446;9.988;2023-02-01T09:06:35;5.80;1.00
16388;DHT22;8303;53.446;9.988;2023-02-01T09:09:03;5.80;1.00
16388;DHT22;8303;53.446;9.988;2023-02-01T09:11:30;6.00;99.90
16388;DHT22;8303;53.446;9.988;2023-02-01T09:13:57;6.10;99.90
16388;DHT22;8303;53.446;9.988;2023-02-01T09:16:24;6.00;99.90
16388;DHT22;8303;53.446;9.988;2023-02-01T09:18:50;6.00;99.90
16388;DHT22;8303;53.446;9.988;2023-02-01T09:21:17;6.10;99.90
16388;DHT22;8303;53.446;9.988;2023-02-01T09:23:44;6.10;8.70
16388;DHT22;8303;53.446;9.988;2023-02-01T09:26:15;6.00;99.90
16388;DHT22;8303;53.446;9.988;2023-02-01T09:28:42;5.90;99.90
16388;DHT22;8303;53.446;9.988;2023-02-01T09:31:09;6.00;1.00
16388;DHT22;8303;53.446;9.988;2023-02-01T09:33:36;6.10;1.00
16388;DHT22;8303;53.446;9.988;2023-02-01T09:36:04;6.30;99.90
16388;DHT22;8303;53.446;9.988;2023-02-01T09:38:31;6.30;1.00
16388;DHT22;8303;53.446;9.988;2023-02-01T09:40:59;6.30;1.00
16388;DHT22;8303;53.446;9.988;2023-02-01T09:43:37;6.40;1.00
16388;DHT22;8303;53.446;9.988;2023-02-01T09:46:19;6.50;1.00
16388;DHT22;8303;53.446;9.988;2023-02-01T09:48:49;6.50;99.90
16388;DHT22;8303;53.446;9.988;2023-02-01T09:51:23;6.50;99.90
16388;DHT22;8303;53.446;9.988;2023-02-01T09:53:58;6.50;99.90
16388;DHT22;8303;53.446;9.988;2023-02-01T09:56:33;6.60;99.90
16388;DHT22;8303;53.446;9.988;2023-02-01T09:59:10;6.60;81.80
16388;DHT22;8303;53.446;9.988;2023-02-01T10:01:42;6.70;99.90
16388;DHT22;8303;53.446;9.988;2023-02-01T10:04:12;6.70;11.70
16388;DHT22;8303;53.446;9.988;2023-02-01T10:06:56;6.80;1.00
16388;DHT22;8303;53.446;9.988;2023-02-01T10:09:36;6.70;1.00
16388;DHT22;8303;53.446;9.988;2023-02-01T10:12:36;6.60;1.00
16388;DHT22;8303;53.446;9.988;2023-02-01T10:15:19;6.60;99.90
16388;DHT22;8303;53.446;9.988;2023-02-01T10:17:59;6.50;99.90
16388;DHT22;8303;53.446;9.988;2023-02-01T10:20:33;6.50;99.90
16388;DHT22;8303;53.446;9.988;2023-02-01T10:23:11;6.50;99.90
16388;DHT22;8303;53.446;9.988;2023-02-01T10:25:51;6.30;99.90
16388;DHT22;8303;53.446;9.988;2023-02-01T10:28:20;6.20;1.00
16388;DHT22;8303;53.446;9.988;2023-02-01T10:30:53;6.10;99.90
16388;DHT22;8303;53.446;9.988;2023-02-01T10:33:24;6.00;1.00
16388;DHT22;8303;53.446;9.988;2023-02-01T10:35:55;5.90;1.00
16388;DHT22;8303;53.446;9.988;2023-02-01T10:38:25;5.90;1.00
16388;DHT22;8303;53.446;9.988;2023-02-01T10:40:57;5.80;99.90
16388;DHT22;8303;53.446;9.988;2023-02-01T10:43:27;5.80;99.90
16388;DHT22;8303;53.446;9.988;2023-02-01T10:45:56;5.80;99.90
16388;DHT22;8303;53.446;9.988;2023-02-01T10:48:23;5.90;99.90
16388;DHT22;8303;53.446;9.988;2023-02-01T10:50:54;5.90;99.90
16388;DHT22;8303;53.446;9.988;2023-02-01T10:53:24;5.90;99.90
16388;DHT22;8303;53.446;9.988;2023-02-01T10:55:53;6.00;99.90
16388;DHT22;8303;53.446;9.988;2023-02-01T10:58:26;6.10;99.90
16388;DHT22;8303;53.446;9.988;2023-02-01T11:00:56;6.10;99.90
16388;DHT22;8303;53.446;9.988;2023-02-01T11:03:33;6.10;1.00
16388;DHT22;8303;53.446;9.988;2023-02-01T11:06:02;6.10;1.00
16388;DHT22;8303;53.446;9.988;2023-02-01T11:08:30;6.00;1.00
16388;DHT22;8303;53.446;9.988;2023-02-01T11:10:59;5.70;1.00
16388;DHT22;8303;53.446;9.988;2023-02-01T11:13:30;5.60;80.60
16388;DHT22;8303;53.446;9.988;2023-02-01T11:15:59;5.60;1.00
16388;DHT22;8303;53.446;9.988;2023-02-01T11:18:29;5.60;1.00
16388;DHT22;8303;53.446;9.988;2023-02-01T11:20:58;5.60;1.00
16388;DHT22;8303;53.446;9.988;2023-02-01T11:23:27;5.70;99.90
16388;DHT22;8303;53.446;9.988;2023-02-01T11:25:57;5.80;99.90
16388;DHT22;8303;53.446;9.988;2023-02-01T11:28:26;5.90;99.90
16388;DHT22;8303;53.446;9.988;2023-02-01T11:30:56;6.00;1.00
16388;DHT22;8303;53.446;9.988;2023-02-01T11:33:30;6.00;1.00
16388;DHT22;8303;53.446;9.988;2023-02-01T11:36:05;6.10;1.00
16388;DHT22;8303;53.446;9.988;2023-02-01T11:38:34;6.00;1.00
16388;DHT22;8303;53.446;9.988;2023-02-01T11:41:12;5.90;1.00
16388;DHT22;8303;53.446;9.988;2023-02-01T11:43:51;5.80;1.00
16388;DHT22;8303;53.446;9.988;2023-02-01T11:46:19;5.70;1.00
16388;DHT22;8303;53.446;9.988;2023-02-01T11:48:53;5.60;1.00
16388;DHT22;8303;53.446;9.988;2023-02-01T11:51:28;5.60;27.10
16388;DHT22;8303;53.446;9.988;2023-02-01T11:54:16;5.60;99.90
16388;DHT22;8303;53.446;9.988;2023-02-01T11:56:55;5.60;99.90
16388;DHT22;8303;53.446;9.988;2023-02-01T11:59:39;5.60;99.90
16388;DHT22;8303;53.446;9.988;2023-02-01T12:02:41;5.40;99.90
16388;DHT22;8303;53.446;9.988;2023-02-01T12:05:22;5.40;99.90
16388;DHT22;8303;53.446;9.988;2023-02-01T12:08:01;5.40;1.00
16388;DHT22;8303;53.446;9.988;2023-02-01T12:10:45;5.40;1.00
16388;DHT22;8303;53.446;9.988;2023-02-01T12:13:24;5.40;1.00
16388;DHT22;8303;53.446;9.988;2023-02-01T12:16:00;5.40;1.00
16388;DHT22;8303;53.446;9.988;2023-02-01T12:18:58;5.30;1.00
16388;DHT22;8303;53.446;9.988;2023-02-01T12:21:53;5.30;1.00
16388;DHT22;8303;53.446;9.988;2023-02-01T12:24:52;5.30;1.00
16388;DHT22;8303;53.446;9.988;2023-02-01T12:27:48;5.30;1.00
16388;DHT22;8303;53.446;9.988;2023-02-01T12:33:16;5.20;99.90
16388;DHT22;8303;53.446;9.988;2023-02-01T12:36:10;5.20;99.90
16388;DHT22;8303;53.446;9.988;2023-02-01T12:38:51;5.10;99.90
16388;DHT22;8303;53.446;9.988;2023-02-01T12:41:38;5.00;99.90
16388;DHT22;8303;53.446;9.988;2023-02-01T12:44:11;4.70;99.90
16388;DHT22;8303;53.446;9.988;2023-02-01T12:46:43;4.60;1.00
16388;DHT22;8303;53.446;9.988;2023-02-01T12:49:14;4.40;1.00
16388;DHT22;8303;53.446;9.988;2023-02-01T12:51:46;4.20;1.00
16388;DHT22;8303;53.446;9.988;2023-02-01T12:54:20;4.00;1.00
16388;DHT22;8303;53.446;9.988;2023-02-01T12:56:51;3.90;1.00
16388;DHT22;8303;53.446;9.988;2023-02-01T12:59:24;3.80;1.00
16388;DHT22;8303;53.446;9.988;2023-02-01T13:01:56;3.60;1.00
16388;DHT22;8303;53.446;9.988;2023-02-01T13:04:29;3.60;1.00
16388;DHT22;8303;53.446;9.988;2023-02-01T13:07:04;3.50;1.00
16388;DHT22;8303;53.446;9.988;2023-02-01T13:09:39;3.50;64.30
16388;DHT22;8303;53.446;9.988;2023-02-01T13:12:13;3.50;97.00
16388;DHT22;8303;53.446;9.988;2023-02-01T13:14:44;3.50;99.90
16388;DHT22;8303;53.446;9.988;2023-02-01T13:17:16;3.60;99.90
16388;DHT22;8303;53.446;9.988;2023-02-01T13:19:50;3.50;99.90
16388;DHT22;8303;53.446;9.988;2023-02-01T13:22:21;3.50;99.90
16388;DHT22;8303;53.446;9.988;2023-02-01T13:24:55;3.60;99.90
16388;DHT22;8303;53.446;9.988;2023-02-01T13:27:26;3.70;99.90
16388;DHT22;8303;53.446;9.988;2023-02-01T13:29:58;3.90;92.70
16388;DHT22;8303;53.446;9.988;2023-02-01T13:32:51;4.00;1.00
16388;DHT22;8303;53.446;9.988;2023-02-01T13:35:42;3.90;1.00
16388;DHT22;8303;53.446;9.988;2023-02-01T13:41:24;3.90;1.00
16388;DHT22;8303;53.446;9.988;2023-02-01T13:43:55;3.90;1.00
16388;DHT22;8303;53.446;9.988;2023-02-01T13:46:23;3.90;1.00
16388;DHT22;8303;53.446;9.988;2023-02-01T13:48:53;3.80;1.00
16388;DHT22;8303;53.446;9.988;2023-02-01T13:51:37;3.90;1.00
16388;DHT22;8303;53.446;9.988;2023-02-01T13:54:05;4.00;1.00
16388;DHT22;8303;53.446;9.988;2023-02-01T13:56:41;4.00;99.90
16388;DHT22;8303;53.446;9.988;2023-02-01T13:59:37;4.00;99.90
16388;DHT22;8303;53.446;9.988;2023-02-01T14:02:49;4.00;99.90
16388;DHT22;8303;53.446;9.988;2023-02-01T14:08:23;4.20;99.90
16388;DHT22;8303;53.446;9.988;2023-02-01T14:10:53;4.30;1.00
16388;DHT22;8303;53.446;9.988;2023-02-01T14:13:28;4.40;1.00
16388;DHT22;8303;53.446;9.988;2023-02-01T14:16:13;4.40;1.00
16388;DHT22;8303;53.446;9.988;2023-02-01T14:18:59;4.30;1.00
16388;DHT22;8303;53.446;9.988;2023-02-01T14:21:29;4.40;1.00
16388;DHT22;8303;53.446;9.988;2023-02-01T14:23:59;4.40;1.00
16388;DHT22;8303;53.446;9.988;2023-02-01T14:26:41;4.50;1.00
16388;DHT22;8303;53.446;9.988;2023-02-01T14:29:29;4.80;1.00
16388;DHT22;8303;53.446;9.988;2023-02-01T14:32:04;4.70;1.00
16388;DHT22;8303;53.446;9.988;2023-02-01T14:34:38;4.60;1.00
16388;DHT22;8303;53.446;9.988;2023-02-01T14:37:10;4.60;1.00
16388;DHT22;8303;53.446;9.988;2023-02-01T14:39:53;4.60;1.00
16388;DHT22;8303;53.446;9.988;2023-02-01T14:42:25;4.60;1.00
16388;DHT22;8303;53.446;9.988;2023-02-01T14:44:54;4.50;99.90
16388;DHT22;8303;53.446;9.988;2023-02-01T14:47:33;4.40;1.00
16388;DHT22;8303;53.446;9.988;2023-02-01T14:50:20;4.10;1.00
16388;DHT22;8303;53.446;9.988;2023-02-01T14:52:51;4.00;1.00
16388;DHT22;8303;53.446;9.988;2023-02-01T14:55:27;3.80;1.00
16388;DHT22;8303;53.446;9.988;2023-02-01T14:57:58;3.80;39.30
16388;DHT22;8303;53.446;9.988;2023-02-01T15:00:29;3.70;99.90
16388;DHT22;8303;53.446;9.988;2023-02-01T15:03:15;3.70;89.10
16388;DHT22;8303;53.446;9.988;2023-02-01T15:05:43;3.80;99.90
16388;DHT22;8303;53.446;9.988;2023-02-01T15:08:16;3.70;99.90
16388;DHT22;8303;53.446;9.988;2023-02-01T15:10:46;3.70;99.90
16388;DHT22;8303;53.446;9.988;2023-02-01T15:13:23;3.70;99.90
16388;DHT22;8303;53.446;9.988;2023-02-01T15:16:02;3.70;99.90
16388;DHT22;8303;53.446;9.988;2023-02-01T15:18:30;3.80;99.90
16388;DHT22;8303;53.446;9.988;2023-02-01T15:20:58;3.80;99.90
16388;DHT22;8303;53.446;9.988;2023-02-01T15:23:26;3.80;99.90
16388;DHT22;8303;53.446;9.988;2023-02-01T15:25:54;3.80;99.90
16388;DHT22;8303;53.446;9.988;2023-02-01T15:28:22;3.80;99.90
16388;DHT22;8303;53.446;9.988;2023-02-01T15:30:58;3.80;99.90
16388;DHT22;8303;53.446;9.988;2023-02-01T15:33:28;3.80;99.90
16388;DHT22;8303;53.446;9.988;2023-02-01T15:36:06;3.80;99.90
16388;DHT22;8303;53.446;9.988;2023-02-01T15:38:37;3.80;99.90
16388;DHT22;8303;53.446;9.988;2023-02-01T15:41:11;3.80;97.30
16388;DHT22;8303;53.446;9.988;2023-02-01T15:43:41;3.80;96.80
16388;DHT22;8303;53.446;9.988;2023-02-01T15:46:12;3.80;21.60
16388;DHT22;8303;53.446;9.988;2023-02-01T15:48:44;3.80;1.00
16388;DHT22;8303;53.446;9.988;2023-02-01T15:51:17;3.80;1.00
16388;DHT22;8303;53.446;9.988;2023-02-01T15:53:51;3.80;1.00
16388;DHT22;8303;53.446;9.988;2023-02-01T15:56:25;3.90;1.00
16388;DHT22;8303;53.446;9.988;2023-02-01T15:58:55;3.90;1.00
16388;DHT22;8303;53.446;9.988;2023-02-01T16:01:22;4.30;1.00
16388;DHT22;8303;53.446;9.988;2023-02-01T16:04:02;4.90;1.00
16388;DHT22;8303;53.446;9.988;2023-02-01T16:06:31;4.60;99.90
16388;DHT22;8303;53.446;9.988;2023-02-01T16:09:03;4.40;1.00
16388;DHT22;8303;53.446;9.988;2023-02-01T16:11:32;4.30;9.30
16388;DHT22;8303;53.446;9.988;2023-02-01T16:14:00;4.30;99.90
16388;DHT22;8303;53.446;9.988;2023-02-01T16:16:29;4.30;99.90
16388;DHT22;8303;53.446;9.988;2023-02-01T16:18:58;4.30;99.90
16388;DHT22;8303;53.446;9.988;2023-02-01T16:21:24;4.30;80.70
16388;DHT22;8303;53.446;9.988;2023-02-01T16:23:51;4.40;27.00
16388;DHT22;8303;53.446;9.988;2023-02-01T16:26:19;4.40;1.00
16388;DHT22;8303;53.446;9.988;2023-02-01T16:28:46;4.40;1.00
16388;DHT22;8303;53.446;9.988;2023-02-01T16:31:14;4.40;1.00
16388;DHT22;8303;53.446;9.988;2023-02-01T16:33:46;4.40;1.00
16388;DHT22;8303;53.446;9.988;2023-02-01T16:36:15;4.50;86.50
16388;DHT22;8303;53.446;9.988;2023-02-01T16:38:43;4.60;99.90
16388;DHT22;8303;53.446;9.988;2023-02-01T16:41:14;4.60;99.90
16388;DHT22;8303;53.446;9.988;2023-02-01T16:43:41;4.70;99.90
16388;DHT22;8303;53.446;9.988;2023-02-01T16:46:13;4.80;25.40
16388;DHT22;8303;53.446;9.988;2023-02-01T16:48:42;4.80;1.00
16388;DHT22;8303;53.446;9.988;2023-02-01T16:51:13;4.80;1.00
16388;DHT22;8303;53.446;9.988;2023-02-01T16:53:41;4.90;1.00
16388;DHT22;8303;53.446;9.988;2023-02-01T16:56:13;4.90;1.00
16388;DHT22;8303;53.446;9.988;2023-02-01T16:58:41;4.90;1.00
16388;DHT22;8303;53.446;9.988;2023-02-01T17:01:09;5.00;1.00
16388;DHT22;8303;53.446;9.988;2023-02-01T17:03:36;5.00;99.90
16388;DHT22;8303;53.446;9.988;2023-02-01T17:06:05;5.10;99.90
16388;DHT22;8303;53.446;9.988;2023-02-01T17:08:34;5.10;27.60
16388;DHT22;8303;53.446;9.988;2023-02-01T17:11:04;5.10;1.00
16388;DHT22;8303;53.446;9.988;2023-02-01T17:13:31;5.20;1.00
16388;DHT22;8303;53.446;9.988;2023-02-01T17:16:00;5.20;1.00
16388;DHT22;8303;53.446;9.988;2023-02-01T17:18:31;5.20;1.00
16388;DHT22;8303;53.446;9.988;2023-02-01T17:20:59;5.20;1.00
16388;DHT22;8303;53.446;9.988;2023-02-01T17:23:27;5.20;1.00
16388;DHT22;8303;53.446;9.988;2023-02-01T17:25:54;5.20;99.90
16388;DHT22;8303;53.446;9.988;2023-02-01T17:28:23;5.20;99.90
16388;DHT22;8303;53.446;9.988;2023-02-01T17:30:50;5.30;99.90
16388;DHT22;8303;53.446;9.988;2023-02-01T17:33:21;5.30;1.00
16388;DHT22;8303;53.446;9.988;2023-02-01T17:35:48;5.30;1.00
16388;DHT22;8303;53.446;9.988;2023-02-01T17:38:15;5.30;99.90
16388;DHT22;8303;53.446;9.988;2023-02-01T17:40:42;5.30;99.90
16388;DHT22;8303;53.446;9.988;2023-02-01T17:43:12;5.30;99.90
16388;DHT22;8303;53.446;9.988;2023-02-01T17:45:44;5.20;1.00
16388;DHT22;8303;53.446;9.988;2023-02-01T17:48:16;5.30;1.00
16388;DHT22;8303;53.446;9.988;2023-02-01T17:50:44;5.30;1.00
16388;DHT22;8303;53.446;9.988;2023-02-01T17:53:12;5.30;1.00
16388;DHT22;8303;53.446;9.988;2023-02-01T17:55:42;5.20;99.90
16388;DHT22;8303;53.446;9.988;2023-02-01T17:58:10;5.20;99.90
16388;DHT22;8303;53.446;9.988;2023-02-01T18:00:38;5.20;99.90
16388;DHT22;8303;53.446;9.988;2023-02-01T18:03:18;5.20;99.90
16388;DHT22;8303;53.446;9.988;2023-02-01T18:05:48;5.20;1.00
16388;DHT22;8303;53.446;9.988;2023-02-01T18:08:18;5.20;1.00
16388;DHT22;8303;53.446;9.988;2023-02-01T18:10:48;5.10;1.00
16388;DHT22;8303;53.446;9.988;2023-02-01T18:13:15;5.10;1.00
16388;DHT22;8303;53.446;9.988;2023-02-01T18:15:42;5.20;99.90
16388;DHT22;8303;53.446;9.988;2023-02-01T18:18:10;5.20;99.90
16388;DHT22;8303;53.446;9.988;2023-02-01T18:20:39;5.10;99.90
16388;DHT22;8303;53.446;9.988;2023-02-01T18:23:13;5.00;1.00
16388;DHT22;8303;53.446;9.988;2023-02-01T18:25:41;5.00;1.00
16388;DHT22;8303;53.446;9.988;2023-02-01T18:28:07;5.00;1.00
16388;DHT22;8303;53.446;9.988;2023-02-01T18:30:34;5.20;99.90
16388;DHT22;8303;53.446;9.988;2023-02-01T18:33:01;5.00;1.00
16388;DHT22;8303;53.446;9.988;2023-02-01T18:35:31;4.90;1.00
16388;DHT22;8303;53.446;9.988;2023-02-01T18:37:58;4.80;1.00
16388;DHT22;8303;53.446;9.988;2023-02-01T18:40:26;4.70;1.00
16388;DHT22;8303;53.446;9.988;2023-02-01T18:42:54;4.70;1.00
16388;DHT22;8303;53.446;9.988;2023-02-01T18:45:28;4.70;1.00
16388;DHT22;8303;53.446;9.988;2023-02-01T18:47:56;4.70;1.00
16388;DHT22;8303;53.446;9.988;2023-02-01T18:50:25;4.80;1.00
16388;DHT22;8303;53.446;9.988;2023-02-01T18:52:55;4.70;1.00
16388;DHT22;8303;53.446;9.988;2023-02-01T18:55:22;4.70;99.90
16388;DHT22;8303;53.446;9.988;2023-02-01T18:57:49;4.70;99.90
16388;DHT22;8303;53.446;9.988;2023-02-01T19:00:17;4.70;99.90
16388;DHT22;8303;53.446;9.988;2023-02-01T19:02:45;4.80;99.90
16388;DHT22;8303;53.446;9.988;2023-02-01T19:05:13;4.80;99.90
16388;DHT22;8303;53.446;9.988;2023-02-01T19:07:41;4.80;99.90
16388;DHT22;8303;53.446;9.988;2023-02-01T19:10:11;4.70;99.90
16388;DHT22;8303;53.446;9.988;2023-02-01T19:12:39;4.80;99.90
16388;DHT22;8303;53.446;9.988;2023-02-01T19:15:08;4.70;99.90
16388;DHT22;8303;53.446;9.988;2023-02-01T19:17:38;4.70;99.90
16388;DHT22;8303;53.446;9.988;2023-02-01T19:20:06;4.80;44.60
16388;DHT22;8303;53.446;9.988;2023-02-01T19:22:35;4.80;1.00
16388;DHT22;8303;53.446;9.988;2023-02-01T19:25:02;4.80;1.00
16388;DHT22;8303;53.446;9.988;2023-02-01T19:27:30;4.80;1.00
16388;DHT22;8303;53.446;9.988;2023-02-01T19:29:57;4.90;1.00
16388;DHT22;8303;53.446;9.988;2023-02-01T19:32:24;4.90;1.00
16388;DHT22;8303;53.446;9.988;2023-02-01T19:34:51;4.90;1.00
16388;DHT22;8303;53.446;9.988;2023-02-01T19:37:18;4.90;1.00
16388;DHT22;8303;53.446;9.988;2023-02-01T19:39:48;4.90;1.00
16388;DHT22;8303;53.446;9.988;2023-02-01T19:42:15;4.90;1.00
16388;DHT22;8303;53.446;9.988;2023-02-01T19:44:43;4.90;1.00
16388;DHT22;8303;53.446;9.988;2023-02-01T19:47:10;5.00;1.00
16388;DHT22;8303;53.446;9.988;2023-02-01T19:49:37;5.10;1.00
16388;DHT22;8303;53.446;9.988;2023-02-01T19:52:04;5.10;1.00
16388;DHT22;8303;53.446;9.988;2023-02-01T19:54:31;5.10;1.00
16388;DHT22;8303;53.446;9.988;2023-02-01T19:56:58;5.20;1.00
16388;DHT22;8303;53.446;9.988;2023-02-01T19:59:25;5.20;1.00
16388;DHT22;8303;53.446;9.988;2023-02-01T20:01:53;5.20;95.90
16388;DHT22;8303;53.446;9.988;2023-02-01T20:04:20;5.10;1.00
16388;DHT22;8303;53.446;9.988;2023-02-01T20:06:48;5.00;1.00
16388;DHT22;8303;53.446;9.988;2023-02-01T20:09:19;4.80;99.90
16388;DHT22;8303;53.446;9.988;2023-02-01T20:11:47;4.60;1.00
16388;DHT22;8303;53.446;9.988;2023-02-01T20:14:15;4.50;1.00
16388;DHT22;8303;53.446;9.988;2023-02-01T20:16:42;4.50;99.90
16388;DHT22;8303;53.446;9.988;2023-02-01T20:19:13;4.60;1.00
16388;DHT22;8303;53.446;9.988;2023-02-01T20:21:40;4.60;4.30
16388;DHT22;8303;53.446;9.988;2023-02-01T20:24:09;4.60;40.30
16388;DHT22;8303;53.446;9.988;2023-02-01T20:26:37;4.60;14.60
16388;DHT22;8303;53.446;9.988;2023-02-01T20:29:04;4.70;1.00
16388;DHT22;8303;53.446;9.988;2023-02-01T20:31:32;4.70;1.00
16388;DHT22;8303;53.446;9.988;2023-02-01T20:34:00;4.80;1.00
16388;DHT22;8303;53.446;9.988;2023-02-01T20:36:29;4.90;1.00
16388;DHT22;8303;53.446;9.988;2023-02-01T20:38:56;5.00;99.90
16388;DHT22;8303;53.446;9.988;2023-02-01T20:41:25;5.10;1.00
16388;DHT22;8303;53.446;9.988;2023-02-01T20:43:52;5.10;1.00
16388;DHT22;8303;53.446;9.988;2023-02-01T20:46:19;5.20;1.00
16388;DHT22;8303;53.446;9.988;2023-02-01T20:48:48;5.30;1.00
16388;DHT22;8303;53.446;9.988;2023-02-01T20:51:17;5.30;99.90
16388;DHT22;8303;53.446;9.988;2023-02-01T20:53:46;5.30;99.90
16388;DHT22;8303;53.446;9.988;2023-02-01T20:56:14;5.30;1.00
16388;DHT22;8303;53.446;9.988;2023-02-01T20:58:41;5.30;99.90
16388;DHT22;8303;53.446;9.988;2023-02-01T21:01:09;5.30;99.90
16388;DHT22;8303;53.446;9.988;2023-02-01T21:03:36;5.40;1.00
16388;DHT22;8303;53.446;9.988;2023-02-01T21:06:04;5.50;1.00
16388;DHT22;8303;53.446;9.988;2023-02-01T21:08:32;5.40;1.00
16388;DHT22;8303;53.446;9.988;2023-02-01T21:11:02;5.40;99.90
16388;DHT22;8303;53.446;9.988;2023-02-01T21:13:31;5.50;1.00
16388;DHT22;8303;53.446;9.988;2023-02-01T21:15:59;5.60;99.90
16388;DHT22;8303;53.446;9.988;2023-02-01T21:18:26;5.60;99.90
16388;DHT22;8303;53.446;9.988;2023-02-01T21:20:53;5.70;1.00
16388;DHT22;8303;53.446;9.988;2023-02-01T21:23:20;5.80;1.00
16388;DHT22;8303;53.446;9.988;2023-02-01T21:25:47;5.80;1.00
16388;DHT22;8303;53.446;9.988;2023-02-01T21:28:15;5.80;1.00
